sensor_id;sensor_type;location;lat;lon;timestamp;P1;durP1;ratioP1;P2;durP2;ratioP2
52764;SDS011;38650;44.536;18.664;2024-03-02T00:01:11;19.20;;;16.50;;
52764;SDS011;38650;44.536;18.664;2024-03-02T00:03:37;16.60;;;14.27;;
52764;SDS011;38650;44.536;18.664;2024-03-02T00:06:03;19.58;;;16.70;;
52764;SDS011;38650;44.536;18.664;2024-03-02T00:08:29;16.75;;;14.52;;
52764;SDS011;38650;44.536;18.664;2024-03-02T00:10:58;17.08;;;14.70;;
52764;SDS011;38650;44.536;18.664;2024-03-02T00:13:25;21.27;;;16.95;;
52764;SDS011;38650;44.536;18.664;2024-03-02T00:15:52;18.40;;;15.10;;
52764;SDS011;38650;44.536;18.664;2024-03-02T00:18:20;17.30;;;14.30;;
52764;SDS011;38650;44.536;18.664;2024-03-02T00:20:56;18.95;;;16.13;;
52764;SDS011;38650;44.536;18.664;2024-03-02T00:23:23;19.15;;;16.88;;
52764;SDS011;38650;44.536;18.664;2024-03-02T00:25:50;28.85;;;22.13;;
52764;SDS011;38650;44.536;18.664;2024-03-02T00:28:25;29.95;;;23.30;;
52764;SDS011;38650;44.536;18.664;2024-03-02T00:33:36;26.38;;;21.02;;
52764;SDS011;38650;44.536;18.664;2024-03-02T00:36:05;29.35;;;22.13;;
52764;SDS011;38650;44.536;18.664;2024-03-02T00:38:31;24.25;;;19.50;;
52764;SDS011;38650;44.536;18.664;2024-03-02T00:40:59;26.08;;;20.73;;
52764;SDS011;38650;44.536;18.664;2024-03-02T00:46:06;22.58;;;17.90;;
52764;SDS011;38650;44.536;18.664;2024-03-02T00:48:32;24.05;;;19.48;;
52764;SDS011;38650;44.536;18.664;2024-03-02T00:51:01;22.98;;;19.38;;
52764;SDS011;38650;44.536;18.664;2024-03-02T00:53:28;19.77;;;17.67;;
52764;SDS011;38650;44.536;18.664;2024-03-02T00:55:55;20.88;;;17.33;;
52764;SDS011;38650;44.536;18.664;2024-03-02T00:58:21;19.05;;;16.65;;
52764;SDS011;38650;44.536;18.664;2024-03-02T01:00:47;21.48;;;17.33;;
52764;SDS011;38650;44.536;18.664;2024-03-02T01:03:12;20.05;;;16.58;;
52764;SDS011;38650;44.536;18.664;2024-03-02T01:05:41;15.70;;;14.02;;
52764;SDS011;38650;44.536;18.664;2024-03-02T01:08:08;17.60;;;14.43;;
52764;SDS011;38650;44.536;18.664;2024-03-02T01:10:34;15.50;;;13.25;;
52764;SDS011;38650;44.536;18.664;2024-03-02T01:13:00;14.27;;;11.57;;
52764;SDS011;38650;44.536;18.664;2024-03-02T01:15:25;13.60;;;12.15;;
52764;SDS011;38650;44.536;18.664;2024-03-02T01:17:51;13.07;;;11.65;;
52764;SDS011;38650;44.536;18.664;2024-03-02T01:20:18;14.73;;;11.93;;
52764;SDS011;38650;44.536;18.664;2024-03-02T01:22:44;12.38;;;10.27;;
52764;SDS011;38650;44.536;18.664;2024-03-02T01:25:09;13.55;;;10.77;;
52764;SDS011;38650;44.536;18.664;2024-03-02T01:27:35;13.15;;;10.70;;
52764;SDS011;38650;44.536;18.664;2024-03-02T01:30:01;13.43;;;10.18;;
52764;SDS011;38650;44.536;18.664;2024-03-02T01:32:26;15.30;;;11.60;;
52764;SDS011;38650;44.536;18.664;2024-03-02T01:34:52;14.48;;;12.65;;
52764;SDS011;38650;44.536;18.664;2024-03-02T01:37:18;14.90;;;11.95;;
52764;SDS011;38650;44.536;18.664;2024-03-02T01:39:44;12.13;;;10.45;;
52764;SDS011;38650;44.536;18.664;2024-03-02T01:42:09;14.38;;;12.18;;
52764;SDS011;38650;44.536;18.664;2024-03-02T01:44:36;16.48;;;12.90;;
52764;SDS011;38650;44.536;18.664;2024-03-02T01:47:01;13.32;;;11.10;;
52764;SDS011;38650;44.536;18.664;2024-03-02T01:49:27;12.48;;;11.18;;
52764;SDS011;38650;44.536;18.664;2024-03-02T01:51:53;12.43;;;9.98;;
52764;SDS011;38650;44.536;18.664;2024-03-02T01:54:18;15.00;;;11.75;;
52764;SDS011;38650;44.536;18.664;2024-03-02T01:56:44;15.25;;;11.57;;
52764;SDS011;38650;44.536;18.664;2024-03-02T01:59:10;16.50;;;13.48;;
52764;SDS011;38650;44.536;18.664;2024-03-02T02:01:38;16.05;;;13.45;;
52764;SDS011;38650;44.536;18.664;2024-03-02T02:04:04;24.58;;;18.25;;
52764;SDS011;38650;44.536;18.664;2024-03-02T02:06:31;24.85;;;18.83;;
52764;SDS011;38650;44.536;18.664;2024-03-02T02:08:57;21.08;;;16.98;;
52764;SDS011;38650;44.536;18.664;2024-03-02T02:11:23;21.80;;;16.67;;
52764;SDS011;38650;44.536;18.664;2024-03-02T02:13:50;18.58;;;15.23;;
52764;SDS011;38650;44.536;18.664;2024-03-02T02:16:15;20.17;;;15.75;;
52764;SDS011;38650;44.536;18.664;2024-03-02T02:18:41;23.45;;;16.73;;
52764;SDS011;38650;44.536;18.664;2024-03-02T02:21:07;25.70;;;20.08;;
52764;SDS011;38650;44.536;18.664;2024-03-02T02:23:32;27.00;;;21.70;;
52764;SDS011;38650;44.536;18.664;2024-03-02T02:25:58;33.63;;;25.00;;
52764;SDS011;38650;44.536;18.664;2024-03-02T02:28:24;31.00;;;25.48;;
52764;SDS011;38650;44.536;18.664;2024-03-02T02:30:50;26.08;;;20.77;;
52764;SDS011;38650;44.536;18.664;2024-03-02T02:33:15;24.33;;;19.73;;
52764;SDS011;38650;44.536;18.664;2024-03-02T02:35:41;20.02;;;17.45;;
52764;SDS011;38650;44.536;18.664;2024-03-02T02:38:07;16.15;;;14.30;;
52764;SDS011;38650;44.536;18.664;2024-03-02T02:40:32;15.82;;;13.00;;
52764;SDS011;38650;44.536;18.664;2024-03-02T02:42:58;13.32;;;11.90;;
52764;SDS011;38650;44.536;18.664;2024-03-02T02:45:26;12.18;;;10.73;;
52764;SDS011;38650;44.536;18.664;2024-03-02T02:47:52;11.65;;;9.75;;
52764;SDS011;38650;44.536;18.664;2024-03-02T02:50:18;12.70;;;10.57;;
52764;SDS011;38650;44.536;18.664;2024-03-02T02:52:43;12.55;;;10.77;;
52764;SDS011;38650;44.536;18.664;2024-03-02T02:55:10;12.25;;;10.13;;
52764;SDS011;38650;44.536;18.664;2024-03-02T02:57:41;11.23;;;10.02;;
52764;SDS011;38650;44.536;18.664;2024-03-02T03:02:40;11.45;;;9.23;;
52764;SDS011;38650;44.536;18.664;2024-03-02T03:05:07;11.50;;;9.93;;
52764;SDS011;38650;44.536;18.664;2024-03-02T03:07:36;11.80;;;9.70;;
52764;SDS011;38650;44.536;18.664;2024-03-02T03:10:03;11.98;;;9.55;;
52764;SDS011;38650;44.536;18.664;2024-03-02T03:12:30;13.45;;;11.20;;
52764;SDS011;38650;44.536;18.664;2024-03-02T03:14:58;10.02;;;8.60;;
52764;SDS011;38650;44.536;18.664;2024-03-02T03:17:24;12.13;;;7.82;;
52764;SDS011;38650;44.536;18.664;2024-03-02T03:19:50;11.27;;;8.68;;
52764;SDS011;38650;44.536;18.664;2024-03-02T03:22:16;12.95;;;10.73;;
52764;SDS011;38650;44.536;18.664;2024-03-02T03:24:42;14.13;;;11.52;;
52764;SDS011;38650;44.536;18.664;2024-03-02T03:27:08;18.48;;;13.57;;
52764;SDS011;38650;44.536;18.664;2024-03-02T03:29:35;16.48;;;12.23;;
52764;SDS011;38650;44.536;18.664;2024-03-02T03:32:01;15.32;;;12.63;;
52764;SDS011;38650;44.536;18.664;2024-03-02T03:34:28;16.58;;;12.68;;
52764;SDS011;38650;44.536;18.664;2024-03-02T03:36:54;13.93;;;11.40;;
52764;SDS011;38650;44.536;18.664;2024-03-02T03:39:20;14.50;;;11.85;;
52764;SDS011;38650;44.536;18.664;2024-03-02T03:41:45;10.55;;;9.45;;
52764;SDS011;38650;44.536;18.664;2024-03-02T03:44:11;10.00;;;8.88;;
52764;SDS011;38650;44.536;18.664;2024-03-02T03:46:37;12.00;;;8.93;;
52764;SDS011;38650;44.536;18.664;2024-03-02T03:49:03;9.93;;;8.55;;
52764;SDS011;38650;44.536;18.664;2024-03-02T03:51:29;9.25;;;8.07;;
52764;SDS011;38650;44.536;18.664;2024-03-02T03:53:55;12.18;;;9.48;;
52764;SDS011;38650;44.536;18.664;2024-03-02T03:56:21;14.00;;;10.98;;
52764;SDS011;38650;44.536;18.664;2024-03-02T03:58:46;13.07;;;9.77;;
52764;SDS011;38650;44.536;18.664;2024-03-02T04:01:12;15.90;;;11.48;;
52764;SDS011;38650;44.536;18.664;2024-03-02T04:03:38;12.00;;;9.93;;
52764;SDS011;38650;44.536;18.664;2024-03-02T04:06:04;10.98;;;8.95;;
52764;SDS011;38650;44.536;18.664;2024-03-02T04:08:29;10.77;;;9.07;;
52764;SDS011;38650;44.536;18.664;2024-03-02T04:10:55;11.82;;;9.45;;
52764;SDS011;38650;44.536;18.664;2024-03-02T04:13:21;11.90;;;9.45;;
52764;SDS011;38650;44.536;18.664;2024-03-02T04:15:47;8.48;;;7.57;;
52764;SDS011;38650;44.536;18.664;2024-03-02T04:18:12;8.88;;;7.22;;
52764;SDS011;38650;44.536;18.664;2024-03-02T04:20:38;7.80;;;6.90;;
52764;SDS011;38650;44.536;18.664;2024-03-02T04:23:04;8.75;;;7.50;;
52764;SDS011;38650;44.536;18.664;2024-03-02T04:25:29;7.15;;;6.38;;
52764;SDS011;38650;44.536;18.664;2024-03-02T04:27:55;7.80;;;6.38;;
52764;SDS011;38650;44.536;18.664;2024-03-02T04:30:20;6.78;;;6.10;;
52764;SDS011;38650;44.536;18.664;2024-03-02T04:32:46;9.63;;;7.38;;
52764;SDS011;38650;44.536;18.664;2024-03-02T04:35:12;6.25;;;5.65;;
52764;SDS011;38650;44.536;18.664;2024-03-02T04:37:39;6.65;;;5.95;;
52764;SDS011;38650;44.536;18.664;2024-03-02T04:40:04;17.80;;;14.98;;
52764;SDS011;38650;44.536;18.664;2024-03-02T04:42:34;19.58;;;14.93;;
52764;SDS011;38650;44.536;18.664;2024-03-02T04:45:00;16.98;;;13.20;;
52764;SDS011;38650;44.536;18.664;2024-03-02T04:47:25;15.77;;;12.65;;
52764;SDS011;38650;44.536;18.664;2024-03-02T04:49:51;14.98;;;13.38;;
52764;SDS011;38650;44.536;18.664;2024-03-02T04:52:17;15.98;;;12.82;;
52764;SDS011;38650;44.536;18.664;2024-03-02T04:54:43;14.25;;;11.70;;
52764;SDS011;38650;44.536;18.664;2024-03-02T04:57:27;13.27;;;10.85;;
52764;SDS011;38650;44.536;18.664;2024-03-02T04:59:53;11.57;;;9.90;;
52764;SDS011;38650;44.536;18.664;2024-03-02T05:02:18;12.38;;;10.43;;
52764;SDS011;38650;44.536;18.664;2024-03-02T05:04:44;9.82;;;8.80;;
52764;SDS011;38650;44.536;18.664;2024-03-02T05:07:10;11.13;;;9.27;;
52764;SDS011;38650;44.536;18.664;2024-03-02T05:09:35;9.90;;;8.80;;
52764;SDS011;38650;44.536;18.664;2024-03-02T05:12:01;13.52;;;10.45;;
52764;SDS011;38650;44.536;18.664;2024-03-02T05:14:39;13.63;;;11.23;;
52764;SDS011;38650;44.536;18.664;2024-03-02T05:17:04;11.65;;;9.95;;
52764;SDS011;38650;44.536;18.664;2024-03-02T05:19:30;14.95;;;12.43;;
52764;SDS011;38650;44.536;18.664;2024-03-02T05:21:56;14.30;;;11.27;;
52764;SDS011;38650;44.536;18.664;2024-03-02T05:24:21;16.77;;;14.07;;
52764;SDS011;38650;44.536;18.664;2024-03-02T05:26:47;23.63;;;17.60;;
52764;SDS011;38650;44.536;18.664;2024-03-02T05:29:12;23.98;;;20.52;;
52764;SDS011;38650;44.536;18.664;2024-03-02T05:31:38;35.60;;;30.17;;
52764;SDS011;38650;44.536;18.664;2024-03-02T05:34:04;27.10;;;24.25;;
52764;SDS011;38650;44.536;18.664;2024-03-02T05:36:30;29.65;;;25.70;;
52764;SDS011;38650;44.536;18.664;2024-03-02T05:38:56;26.90;;;24.05;;
52764;SDS011;38650;44.536;18.664;2024-03-02T05:41:22;24.45;;;20.98;;
52764;SDS011;38650;44.536;18.664;2024-03-02T05:43:48;24.80;;;21.90;;
52764;SDS011;38650;44.536;18.664;2024-03-02T05:46:14;27.58;;;24.67;;
52764;SDS011;38650;44.536;18.664;2024-03-02T05:48:40;22.27;;;19.88;;
52764;SDS011;38650;44.536;18.664;2024-03-02T05:51:05;21.02;;;17.85;;
52764;SDS011;38650;44.536;18.664;2024-03-02T05:53:31;19.20;;;16.55;;
52764;SDS011;38650;44.536;18.664;2024-03-02T05:55:57;18.48;;;15.57;;
52764;SDS011;38650;44.536;18.664;2024-03-02T05:58:22;17.13;;;14.82;;
52764;SDS011;38650;44.536;18.664;2024-03-02T06:00:51;13.57;;;12.27;;
52764;SDS011;38650;44.536;18.664;2024-03-02T06:03:16;13.07;;;11.77;;
52764;SDS011;38650;44.536;18.664;2024-03-02T06:05:42;12.32;;;10.98;;
52764;SDS011;38650;44.536;18.664;2024-03-02T06:08:08;10.60;;;9.50;;
52764;SDS011;38650;44.536;18.664;2024-03-02T06:10:33;10.43;;;9.32;;
52764;SDS011;38650;44.536;18.664;2024-03-02T06:12:59;10.40;;;9.27;;
52764;SDS011;38650;44.536;18.664;2024-03-02T06:15:24;10.98;;;9.50;;
52764;SDS011;38650;44.536;18.664;2024-03-02T06:17:50;18.63;;;13.73;;
52764;SDS011;38650;44.536;18.664;2024-03-02T06:20:16;24.15;;;17.65;;
52764;SDS011;38650;44.536;18.664;2024-03-02T06:22:41;24.27;;;18.05;;
52764;SDS011;38650;44.536;18.664;2024-03-02T06:25:07;17.77;;;14.82;;
52764;SDS011;38650;44.536;18.664;2024-03-02T06:27:33;17.20;;;14.85;;
52764;SDS011;38650;44.536;18.664;2024-03-02T06:29:58;15.95;;;14.25;;
52764;SDS011;38650;44.536;18.664;2024-03-02T06:32:24;14.15;;;12.18;;
52764;SDS011;38650;44.536;18.664;2024-03-02T06:34:50;16.25;;;12.50;;
52764;SDS011;38650;44.536;18.664;2024-03-02T06:37:15;14.50;;;12.85;;
52764;SDS011;38650;44.536;18.664;2024-03-02T06:39:41;13.23;;;11.80;;
52764;SDS011;38650;44.536;18.664;2024-03-02T06:42:07;15.63;;;11.85;;
52764;SDS011;38650;44.536;18.664;2024-03-02T06:44:33;17.35;;;12.75;;
52764;SDS011;38650;44.536;18.664;2024-03-02T06:46:59;16.98;;;15.13;;
52764;SDS011;38650;44.536;18.664;2024-03-02T06:49:25;23.13;;;18.42;;
52764;SDS011;38650;44.536;18.664;2024-03-02T06:51:51;26.92;;;22.63;;
52764;SDS011;38650;44.536;18.664;2024-03-02T06:54:16;23.25;;;19.80;;
52764;SDS011;38650;44.536;18.664;2024-03-02T06:56:42;18.92;;;16.92;;
52764;SDS011;38650;44.536;18.664;2024-03-02T06:59:08;17.27;;;15.50;;
52764;SDS011;38650;44.536;18.664;2024-03-02T07:01:33;15.57;;;13.98;;
52764;SDS011;38650;44.536;18.664;2024-03-02T07:03:59;13.77;;;12.38;;
52764;SDS011;38650;44.536;18.664;2024-03-02T07:06:25;12.75;;;11.45;;
52764;SDS011;38650;44.536;18.664;2024-03-02T07:08:51;12.35;;;10.73;;
52764;SDS011;38650;44.536;18.664;2024-03-02T07:11:16;13.23;;;11.30;;
52764;SDS011;38650;44.536;18.664;2024-03-02T07:13:42;12.13;;;9.40;;
52764;SDS011;38650;44.536;18.664;2024-03-02T07:16:08;10.48;;;9.48;;
52764;SDS011;38650;44.536;18.664;2024-03-02T07:18:45;9.15;;;8.25;;
52764;SDS011;38650;44.536;18.664;2024-03-02T07:21:16;9.00;;;8.10;;
52764;SDS011;38650;44.536;18.664;2024-03-02T07:23:42;8.65;;;7.80;;
52764;SDS011;38650;44.536;18.664;2024-03-02T07:26:08;8.57;;;7.68;;
52764;SDS011;38650;44.536;18.664;2024-03-02T07:28:33;7.88;;;7.18;;
52764;SDS011;38650;44.536;18.664;2024-03-02T07:31:03;7.22;;;6.53;;
52764;SDS011;38650;44.536;18.664;2024-03-02T07:33:29;8.07;;;7.28;;
52764;SDS011;38650;44.536;18.664;2024-03-02T07:35:56;7.70;;;7.00;;
52764;SDS011;38650;44.536;18.664;2024-03-02T07:38:22;8.98;;;7.40;;
52764;SDS011;38650;44.536;18.664;2024-03-02T07:40:48;8.55;;;6.90;;
52764;SDS011;38650;44.536;18.664;2024-03-02T07:43:18;7.90;;;7.05;;
52764;SDS011;38650;44.536;18.664;2024-03-02T07:45:44;7.82;;;7.13;;
52764;SDS011;38650;44.536;18.664;2024-03-02T07:48:10;7.65;;;7.03;;
52764;SDS011;38650;44.536;18.664;2024-03-02T07:50:36;8.02;;;6.50;;
52764;SDS011;38650;44.536;18.664;2024-03-02T07:53:04;7.68;;;6.63;;
52764;SDS011;38650;44.536;18.664;2024-03-02T07:55:30;7.32;;;6.63;;
52764;SDS011;38650;44.536;18.664;2024-03-02T07:57:56;7.18;;;6.47;;
52764;SDS011;38650;44.536;18.664;2024-03-02T08:00:22;7.63;;;6.80;;
52764;SDS011;38650;44.536;18.664;2024-03-02T08:02:48;7.35;;;6.70;;
52764;SDS011;38650;44.536;18.664;2024-03-02T08:05:17;8.10;;;7.40;;
52764;SDS011;38650;44.536;18.664;2024-03-02T08:07:46;8.32;;;7.53;;
52764;SDS011;38650;44.536;18.664;2024-03-02T08:10:12;8.98;;;8.18;;
52764;SDS011;38650;44.536;18.664;2024-03-02T08:12:38;8.75;;;7.95;;
52764;SDS011;38650;44.536;18.664;2024-03-02T08:15:04;10.63;;;9.63;;
52764;SDS011;38650;44.536;18.664;2024-03-02T08:17:30;11.60;;;10.50;;
52764;SDS011;38650;44.536;18.664;2024-03-02T08:19:56;12.65;;;11.35;;
52764;SDS011;38650;44.536;18.664;2024-03-02T08:22:23;10.73;;;9.80;;
52764;SDS011;38650;44.536;18.664;2024-03-02T08:24:50;9.30;;;8.50;;
52764;SDS011;38650;44.536;18.664;2024-03-02T08:27:16;7.85;;;7.05;;
52764;SDS011;38650;44.536;18.664;2024-03-02T08:29:42;6.88;;;6.28;;
52764;SDS011;38650;44.536;18.664;2024-03-02T08:32:07;6.65;;;6.05;;
52764;SDS011;38650;44.536;18.664;2024-03-02T08:34:33;6.45;;;5.80;;
52764;SDS011;38650;44.536;18.664;2024-03-02T08:37:00;6.03;;;5.53;;
52764;SDS011;38650;44.536;18.664;2024-03-02T08:39:30;7.35;;;6.30;;
52764;SDS011;38650;44.536;18.664;2024-03-02T08:41:55;6.85;;;6.15;;
52764;SDS011;38650;44.536;18.664;2024-03-02T08:44:21;6.18;;;5.57;;
52764;SDS011;38650;44.536;18.664;2024-03-02T08:46:47;7.32;;;5.72;;
52764;SDS011;38650;44.536;18.664;2024-03-02T08:49:12;6.60;;;6.00;;
52764;SDS011;38650;44.536;18.664;2024-03-02T08:51:38;7.05;;;6.35;;
52764;SDS011;38650;44.536;18.664;2024-03-02T08:54:04;6.75;;;6.15;;
52764;SDS011;38650;44.536;18.664;2024-03-02T08:56:30;5.47;;;5.07;;
52764;SDS011;38650;44.536;18.664;2024-03-02T08:58:56;6.97;;;6.28;;
52764;SDS011;38650;44.536;18.664;2024-03-02T09:01:22;6.43;;;5.90;;
52764;SDS011;38650;44.536;18.664;2024-03-02T09:03:48;7.72;;;6.53;;
52764;SDS011;38650;44.536;18.664;2024-03-02T09:06:16;6.57;;;5.95;;
52764;SDS011;38650;44.536;18.664;2024-03-02T09:08:43;5.18;;;4.68;;
52764;SDS011;38650;44.536;18.664;2024-03-02T09:11:09;4.90;;;4.50;;
52764;SDS011;38650;44.536;18.664;2024-03-02T09:13:35;5.15;;;3.20;;
52764;SDS011;38650;44.536;18.664;2024-03-02T09:16:02;3.17;;;2.88;;
52764;SDS011;38650;44.536;18.664;2024-03-02T09:18:29;2.38;;;2.17;;
52764;SDS011;38650;44.536;18.664;2024-03-02T09:20:54;3.42;;;2.60;;
52764;SDS011;38650;44.536;18.664;2024-03-02T09:23:20;2.53;;;2.33;;
52764;SDS011;38650;44.536;18.664;2024-03-02T09:25:46;2.85;;;2.60;;
52764;SDS011;38650;44.536;18.664;2024-03-02T09:28:12;2.92;;;2.30;;
52764;SDS011;38650;44.536;18.664;2024-03-02T09:30:37;2.78;;;2.58;;
52764;SDS011;38650;44.536;18.664;2024-03-02T09:33:03;2.38;;;2.17;;
52764;SDS011;38650;44.536;18.664;2024-03-02T09:35:29;3.28;;;2.38;;
52764;SDS011;38650;44.536;18.664;2024-03-02T09:37:55;2.00;;;1.63;;
52764;SDS011;38650;44.536;18.664;2024-03-02T09:40:24;2.30;;;2.10;;
52764;SDS011;38650;44.536;18.664;2024-03-02T09:42:50;2.53;;;1.98;;
52764;SDS011;38650;44.536;18.664;2024-03-02T09:45:24;1.92;;;1.83;;
52764;SDS011;38650;44.536;18.664;2024-03-02T09:47:51;2.05;;;1.85;;
52764;SDS011;38650;44.536;18.664;2024-03-02T09:50:17;2.33;;;1.83;;
52764;SDS011;38650;44.536;18.664;2024-03-02T09:52:42;3.03;;;2.45;;
52764;SDS011;38650;44.536;18.664;2024-03-02T09:55:09;2.40;;;2.20;;
52764;SDS011;38650;44.536;18.664;2024-03-02T09:57:36;2.38;;;1.88;;
52764;SDS011;38650;44.536;18.664;2024-03-02T10:00:02;2.13;;;1.88;;
52764;SDS011;38650;44.536;18.664;2024-03-02T10:02:28;2.30;;;1.70;;
52764;SDS011;38650;44.536;18.664;2024-03-02T10:04:53;2.67;;;1.92;;
52764;SDS011;38650;44.536;18.664;2024-03-02T10:07:20;1.95;;;1.80;;
52764;SDS011;38650;44.536;18.664;2024-03-02T10:09:46;3.55;;;2.03;;
52764;SDS011;38650;44.536;18.664;2024-03-02T10:12:13;2.13;;;1.92;;
52764;SDS011;38650;44.536;18.664;2024-03-02T10:14:43;1.80;;;1.70;;
52764;SDS011;38650;44.536;18.664;2024-03-02T10:17:10;1.73;;;1.63;;
52764;SDS011;38650;44.536;18.664;2024-03-02T10:19:38;1.30;;;1.20;;
52764;SDS011;38650;44.536;18.664;2024-03-02T10:22:08;1.35;;;1.25;;
52764;SDS011;38650;44.536;18.664;2024-03-02T10:24:41;1.17;;;1.08;;
52764;SDS011;38650;44.536;18.664;2024-03-02T10:27:17;1.70;;;1.60;;
52764;SDS011;38650;44.536;18.664;2024-03-02T10:29:51;7.32;;;6.63;;
52764;SDS011;38650;44.536;18.664;2024-03-02T10:32:17;3.70;;;3.30;;
52764;SDS011;38650;44.536;18.664;2024-03-02T10:34:46;2.70;;;2.50;;
52764;SDS011;38650;44.536;18.664;2024-03-02T10:37:12;2.40;;;1.20;;
52764;SDS011;38650;44.536;18.664;2024-03-02T10:39:39;1.30;;;1.20;;
52764;SDS011;38650;44.536;18.664;2024-03-02T10:42:05;2.03;;;1.40;;
52764;SDS011;38650;44.536;18.664;2024-03-02T10:44:32;1.42;;;0.90;;
52764;SDS011;38650;44.536;18.664;2024-03-02T10:47:00;1.40;;;1.00;;
52764;SDS011;38650;44.536;18.664;2024-03-02T10:49:27;1.20;;;0.90;;
52764;SDS011;38650;44.536;18.664;2024-03-02T10:51:55;1.30;;;0.90;;
52764;SDS011;38650;44.536;18.664;2024-03-02T10:54:20;2.95;;;1.10;;
52764;SDS011;38650;44.536;18.664;2024-03-02T10:56:51;2.85;;;1.17;;
52764;SDS011;38650;44.536;18.664;2024-03-02T11:01:58;1.63;;;1.52;;
52764;SDS011;38650;44.536;18.664;2024-03-02T11:04:26;2.67;;;1.10;;
52764;SDS011;38650;44.536;18.664;2024-03-02T11:06:54;1.40;;;1.00;;
52764;SDS011;38650;44.536;18.664;2024-03-02T11:09:27;1.58;;;1.05;;
52764;SDS011;38650;44.536;18.664;2024-03-02T11:14:44;2.45;;;0.80;;
52764;SDS011;38650;44.536;18.664;2024-03-02T11:17:10;1.73;;;0.90;;
52764;SDS011;38650;44.536;18.664;2024-03-02T11:19:38;1.48;;;0.90;;
52764;SDS011;38650;44.536;18.664;2024-03-02T11:22:05;0.80;;;0.80;;
52764;SDS011;38650;44.536;18.664;2024-03-02T11:24:31;1.27;;;0.80;;
52764;SDS011;38650;44.536;18.664;2024-03-02T11:27:04;2.10;;;1.10;;
52764;SDS011;38650;44.536;18.664;2024-03-02T11:32:06;1.33;;;1.23;;
52764;SDS011;38650;44.536;18.664;2024-03-02T11:34:39;2.75;;;1.23;;
52764;SDS011;38650;44.536;18.664;2024-03-02T11:37:10;1.33;;;1.13;;
52764;SDS011;38650;44.536;18.664;2024-03-02T11:39:36;2.30;;;1.25;;
52764;SDS011;38650;44.536;18.664;2024-03-02T11:42:05;2.38;;;1.25;;
52764;SDS011;38650;44.536;18.664;2024-03-02T11:44:36;1.60;;;1.10;;
52764;SDS011;38650;44.536;18.664;2024-03-02T11:47:07;2.47;;;1.40;;
52764;SDS011;38650;44.536;18.664;2024-03-02T11:52:14;1.83;;;1.00;;
52764;SDS011;38650;44.536;18.664;2024-03-02T11:54:42;3.38;;;1.00;;
52764;SDS011;38650;44.536;18.664;2024-03-02T11:57:15;2.33;;;1.10;;
52764;SDS011;38650;44.536;18.664;2024-03-02T11:59:42;1.95;;;0.95;;
52764;SDS011;38650;44.536;18.664;2024-03-02T12:02:14;1.35;;;1.08;;
52764;SDS011;38650;44.536;18.664;2024-03-02T12:04:43;2.70;;;1.50;;
52764;SDS011;38650;44.536;18.664;2024-03-02T12:07:10;1.65;;;1.10;;
52764;SDS011;38650;44.536;18.664;2024-03-02T12:09:36;1.95;;;1.05;;
52764;SDS011;38650;44.536;18.664;2024-03-02T12:12:08;2.97;;;1.33;;
52764;SDS011;38650;44.536;18.664;2024-03-02T12:17:01;1.35;;;1.15;;
52764;SDS011;38650;44.536;18.664;2024-03-02T12:19:27;1.85;;;1.10;;
52764;SDS011;38650;44.536;18.664;2024-03-02T12:21:55;1.33;;;1.10;;
52764;SDS011;38650;44.536;18.664;2024-03-02T12:24:21;1.85;;;1.17;;
52764;SDS011;38650;44.536;18.664;2024-03-02T12:26:47;1.45;;;0.80;;
52764;SDS011;38650;44.536;18.664;2024-03-02T12:29:14;1.15;;;0.75;;
52764;SDS011;38650;44.536;18.664;2024-03-02T12:31:41;1.15;;;0.85;;
52764;SDS011;38650;44.536;18.664;2024-03-02T12:34:10;1.52;;;0.90;;
52764;SDS011;38650;44.536;18.664;2024-03-02T12:36:38;1.58;;;0.73;;
52764;SDS011;38650;44.536;18.664;2024-03-02T12:39:04;1.17;;;0.90;;
52764;SDS011;38650;44.536;18.664;2024-03-02T12:41:30;1.27;;;0.80;;
52764;SDS011;38650;44.536;18.664;2024-03-02T12:43:56;1.85;;;0.80;;
52764;SDS011;38650;44.536;18.664;2024-03-02T12:46:21;1.95;;;1.02;;
52764;SDS011;38650;44.536;18.664;2024-03-02T12:48:47;2.15;;;1.10;;
52764;SDS011;38650;44.536;18.664;2024-03-02T12:51:13;1.95;;;0.80;;
52764;SDS011;38650;44.536;18.664;2024-03-02T12:53:39;1.63;;;0.90;;
52764;SDS011;38650;44.536;18.664;2024-03-02T12:56:05;1.25;;;0.90;;
52764;SDS011;38650;44.536;18.664;2024-03-02T12:58:38;1.73;;;0.85;;
52764;SDS011;38650;44.536;18.664;2024-03-02T13:01:07;1.10;;;0.90;;
52764;SDS011;38650;44.536;18.664;2024-03-02T13:03:37;1.23;;;1.00;;
52764;SDS011;38650;44.536;18.664;2024-03-02T13:06:04;1.30;;;1.20;;
52764;SDS011;38650;44.536;18.664;2024-03-02T13:08:31;1.30;;;1.20;;
52764;SDS011;38650;44.536;18.664;2024-03-02T13:10:57;2.17;;;1.15;;
52764;SDS011;38650;44.536;18.664;2024-03-02T13:13:22;1.15;;;1.00;;
52764;SDS011;38650;44.536;18.664;2024-03-02T13:15:48;1.15;;;1.00;;
52764;SDS011;38650;44.536;18.664;2024-03-02T13:18:14;2.72;;;1.20;;
52764;SDS011;38650;44.536;18.664;2024-03-02T13:20:39;1.98;;;1.35;;
52764;SDS011;38650;44.536;18.664;2024-03-02T13:23:05;1.80;;;0.93;;
52764;SDS011;38650;44.536;18.664;2024-03-02T13:25:31;1.33;;;1.02;;
52764;SDS011;38650;44.536;18.664;2024-03-02T13:27:57;1.20;;;1.00;;
52764;SDS011;38650;44.536;18.664;2024-03-02T13:30:23;1.13;;;1.02;;
52764;SDS011;38650;44.536;18.664;2024-03-02T13:32:49;1.85;;;1.00;;
52764;SDS011;38650;44.536;18.664;2024-03-02T13:35:15;0.80;;;0.80;;
52764;SDS011;38650;44.536;18.664;2024-03-02T13:37:40;0.70;;;0.70;;
52764;SDS011;38650;44.536;18.664;2024-03-02T13:40:06;2.10;;;1.30;;
52764;SDS011;38650;44.536;18.664;2024-03-02T13:42:38;1.20;;;1.10;;
52764;SDS011;38650;44.536;18.664;2024-03-02T13:45:04;1.88;;;0.70;;
52764;SDS011;38650;44.536;18.664;2024-03-02T13:47:30;1.25;;;0.90;;
52764;SDS011;38650;44.536;18.664;2024-03-02T13:49:56;1.10;;;0.90;;
52764;SDS011;38650;44.536;18.664;2024-03-02T13:52:22;2.97;;;1.02;;
52764;SDS011;38650;44.536;18.664;2024-03-02T13:54:47;1.60;;;0.90;;
52764;SDS011;38650;44.536;18.664;2024-03-02T13:57:13;0.95;;;0.82;;
52764;SDS011;38650;44.536;18.664;2024-03-02T13:59:40;1.00;;;0.88;;
52764;SDS011;38650;44.536;18.664;2024-03-02T14:02:06;1.35;;;0.77;;
52764;SDS011;38650;44.536;18.664;2024-03-02T14:04:33;0.95;;;0.80;;
52764;SDS011;38650;44.536;18.664;2024-03-02T14:07:00;0.85;;;0.68;;
52764;SDS011;38650;44.536;18.664;2024-03-02T14:09:26;0.98;;;0.77;;
52764;SDS011;38650;44.536;18.664;2024-03-02T14:11:53;0.75;;;0.70;;
52764;SDS011;38650;44.536;18.664;2024-03-02T14:14:19;0.70;;;0.60;;
52764;SDS011;38650;44.536;18.664;2024-03-02T14:16:45;0.65;;;0.65;;
52764;SDS011;38650;44.536;18.664;2024-03-02T14:19:11;1.85;;;0.82;;
52764;SDS011;38650;44.536;18.664;2024-03-02T14:21:37;0.75;;;0.70;;
52764;SDS011;38650;44.536;18.664;2024-03-02T14:24:04;0.70;;;0.60;;
52764;SDS011;38650;44.536;18.664;2024-03-02T14:26:32;0.68;;;0.68;;
52764;SDS011;38650;44.536;18.664;2024-03-02T14:28:58;0.77;;;0.50;;
52764;SDS011;38650;44.536;18.664;2024-03-02T14:31:26;0.52;;;0.50;;
52764;SDS011;38650;44.536;18.664;2024-03-02T14:33:52;0.63;;;0.50;;
52764;SDS011;38650;44.536;18.664;2024-03-02T14:36:18;1.38;;;0.60;;
52764;SDS011;38650;44.536;18.664;2024-03-02T14:38:44;1.02;;;0.77;;
52764;SDS011;38650;44.536;18.664;2024-03-02T14:41:09;1.05;;;0.70;;